sensor_id;sensor_type;location;lat;lon;timestamp;temperature;humidity
14182;DHT22;7171;50.936;6.764;2022-08-23T00:01:42;22.60;88.40
14182;DHT22;7171;50.936;6.764;2022-08-23T00:04:11;22.50;88.60
14182;DHT22;7171;50.936;6.764;2022-08-23T00:06:40;22.40;88.70
14182;DHT22;7171;50.936;6.764;2022-08-23T00:09:08;22.30;88.80
14182;DHT22;7171;50.936;6.764;2022-08-23T00:11:39;22.30;89.00
14182;DHT22;7171;50.936;6.764;2022-08-23T00:14:10;22.20;89.40
14182;DHT22;7171;50.936;6.764;2022-08-23T00:16:39;22.20;89.50
14182;DHT22;7171;50.936;6.764;2022-08-23T00:19:09;22.10;89.70
14182;DHT22;7171;50.936;6.764;2022-08-23T00:21:39;22.10;89.80
14182;DHT22;7171;50.936;6.764;2022-08-23T00:24:07;22.00;90.00
14182;DHT22;7171;50.936;6.764;2022-08-23T00:26:54;22.00;89.50
14182;DHT22;7171;50.936;6.764;2022-08-23T00:29:23;21.90;90.00
14182;DHT22;7171;50.936;6.764;2022-08-23T00:31:53;21.90;90.00
14182;DHT22;7171;50.936;6.764;2022-08-23T00:36:48;21.70;90.00
14182;DHT22;7171;50.936;6.764;2022-08-23T00:39:16;21.70;90.30
14182;DHT22;7171;50.936;6.764;2022-08-23T00:41:44;21.60;90.40
14182;DHT22;7171;50.936;6.764;2022-08-23T00:44:14;21.60;90.50
14182;DHT22;7171;50.936;6.764;2022-08-23T00:47:00;21.50;90.60
14182;DHT22;7171;50.936;6.764;2022-08-23T00:49:47;21.50;90.60
14182;DHT22;7171;50.936;6.764;2022-08-23T00:52:21;21.50;90.80
14182;DHT22;7171;50.936;6.764;2022-08-23T00:54:50;21.40;90.80
14182;DHT22;7171;50.936;6.764;2022-08-23T00:57:20;21.40;90.80
14182;DHT22;7171;50.936;6.764;2022-08-23T00:59:46;21.40;90.90
14182;DHT22;7171;50.936;6.764;2022-08-23T01:02:15;21.40;90.90
14182;DHT22;7171;50.936;6.764;2022-08-23T01:04:55;21.40;90.90
14182;DHT22;7171;50.936;6.764;2022-08-23T01:07:35;21.40;90.90
14182;DHT22;7171;50.936;6.764;2022-08-23T01:10:08;21.40;90.90
14182;DHT22;7171;50.936;6.764;2022-08-23T01:12:39;21.40;91.10
14182;DHT22;7171;50.936;6.764;2022-08-23T01:15:13;21.30;91.10
14182;DHT22;7171;50.936;6.764;2022-08-23T01:17:46;21.30;91.10
14182;DHT22;7171;50.936;6.764;2022-08-23T01:20:16;21.30;91.10
14182;DHT22;7171;50.936;6.764;2022-08-23T01:25:18;21.20;91.00
14182;DHT22;7171;50.936;6.764;2022-08-23T01:27:47;21.20;91.30
14182;DHT22;7171;50.936;6.764;2022-08-23T01:30:17;21.10;91.30
14182;DHT22;7171;50.936;6.764;2022-08-23T01:32:47;21.10;91.30
14182;DHT22;7171;50.936;6.764;2022-08-23T01:35:15;21.00;91.20
14182;DHT22;7171;50.936;6.764;2022-08-23T01:37:42;20.90;91.10
14182;DHT22;7171;50.936;6.764;2022-08-23T01:40:10;20.80;91.00
14182;DHT22;7171;50.936;6.764;2022-08-23T01:42:38;20.70;91.10
14182;DHT22;7171;50.936;6.764;2022-08-23T01:45:07;20.70;91.20
14182;DHT22;7171;50.936;6.764;2022-08-23T01:47:34;20.50;91.10
14182;DHT22;7171;50.936;6.764;2022-08-23T01:50:02;20.50;91.20
14182;DHT22;7171;50.936;6.764;2022-08-23T01:52:29;20.40;91.30
14182;DHT22;7171;50.936;6.764;2022-08-23T01:54:56;20.30;91.40
14182;DHT22;7171;50.936;6.764;2022-08-23T01:57:23;20.20;91.50
14182;DHT22;7171;50.936;6.764;2022-08-23T01:59:51;20.20;91.80
14182;DHT22;7171;50.936;6.764;2022-08-23T02:02:18;20.20;91.90
14182;DHT22;7171;50.936;6.764;2022-08-23T02:04:45;20.20;92.00
14182;DHT22;7171;50.936;6.764;2022-08-23T02:07:12;20.10;92.00
14182;DHT22;7171;50.936;6.764;2022-08-23T02:09:39;20.10;92.00
14182;DHT22;7171;50.936;6.764;2022-08-23T02:12:06;20.10;91.90
14182;DHT22;7171;50.936;6.764;2022-08-23T02:14:35;20.00;92.00
14182;DHT22;7171;50.936;6.764;2022-08-23T02:17:09;19.90;91.50
14182;DHT22;7171;50.936;6.764;2022-08-23T02:19:37;19.90;91.70
14182;DHT22;7171;50.936;6.764;2022-08-23T02:22:06;19.90;91.70
14182;DHT22;7171;50.936;6.764;2022-08-23T02:29:29;19.70;92.00
14182;DHT22;7171;50.936;6.764;2022-08-23T02:31:57;19.70;92.30
14182;DHT22;7171;50.936;6.764;2022-08-23T02:34:28;19.70;92.40
14182;DHT22;7171;50.936;6.764;2022-08-23T02:36:56;19.00;92.20
14182;DHT22;7171;50.936;6.764;2022-08-23T02:39:23;19.50;92.40
14182;DHT22;7171;50.936;6.764;2022-08-23T02:41:50;19.60;92.30
14182;DHT22;7171;50.936;6.764;2022-08-23T02:44:18;19.50;92.50
14182;DHT22;7171;50.936;6.764;2022-08-23T02:46:46;19.50;92.60
14182;DHT22;7171;50.936;6.764;2022-08-23T02:51:42;20.50;99.40
14182;DHT22;7171;50.936;6.764;2022-08-23T02:56:36;19.50;92.50
14182;DHT22;7171;50.936;6.764;2022-08-23T02:59:04;19.40;92.70
14182;DHT22;7171;50.936;6.764;2022-08-23T03:01:34;19.20;92.40
14182;DHT22;7171;50.936;6.764;2022-08-23T03:04:02;19.40;92.60
14182;DHT22;7171;50.936;6.764;2022-08-23T03:06:30;19.30;92.30
14182;DHT22;7171;50.936;6.764;2022-08-23T03:08:58;19.20;92.30
14182;DHT22;7171;50.936;6.764;2022-08-23T03:13:53;19.10;92.50
14182;DHT22;7171;50.936;6.764;2022-08-23T03:16:21;19.10;92.70
14182;DHT22;7171;50.936;6.764;2022-08-23T03:18:49;19.00;92.90
14182;DHT22;7171;50.936;6.764;2022-08-23T03:21:16;19.10;93.10
14182;DHT22;7171;50.936;6.764;2022-08-23T03:23:43;19.10;93.20
14182;DHT22;7171;50.936;6.764;2022-08-23T03:26:13;19.00;93.20
14182;DHT22;7171;50.936;6.764;2022-08-23T03:28:41;18.90;92.60
14182;DHT22;7171;50.936;6.764;2022-08-23T03:31:09;18.90;92.80
14182;DHT22;7171;50.936;6.764;2022-08-23T03:33:37;18.90;92.90
14182;DHT22;7171;50.936;6.764;2022-08-23T03:36:07;18.80;93.10
14182;DHT22;7171;50.936;6.764;2022-08-23T03:38:35;18.80;93.40
14182;DHT22;7171;50.936;6.764;2022-08-23T03:41:03;18.80;93.60
14182;DHT22;7171;50.936;6.764;2022-08-23T03:43:31;18.70;93.70
14182;DHT22;7171;50.936;6.764;2022-08-23T03:45:58;18.70;93.70
14182;DHT22;7171;50.936;6.764;2022-08-23T03:48:25;18.70;93.90
14182;DHT22;7171;50.936;6.764;2022-08-23T03:50:52;18.80;94.00
14182;DHT22;7171;50.936;6.764;2022-08-23T03:53:19;18.80;93.90
14182;DHT22;7171;50.936;6.764;2022-08-23T03:55:49;18.80;93.80
14182;DHT22;7171;50.936;6.764;2022-08-23T03:58:16;18.80;94.00
14182;DHT22;7171;50.936;6.764;2022-08-23T04:00:45;18.90;94.00
14182;DHT22;7171;50.936;6.764;2022-08-23T04:03:11;18.90;94.00
14182;DHT22;7171;50.936;6.764;2022-08-23T04:05:38;18.90;94.30
14182;DHT22;7171;50.936;6.764;2022-08-23T04:08:07;18.90;94.50
14182;DHT22;7171;50.936;6.764;2022-08-23T04:10:34;18.90;94.50
14182;DHT22;7171;50.936;6.764;2022-08-23T04:13:01;19.00;94.60
14182;DHT22;7171;50.936;6.764;2022-08-23T04:15:29;19.00;94.60
14182;DHT22;7171;50.936;6.764;2022-08-23T04:17:58;19.00;94.30
14182;DHT22;7171;50.936;6.764;2022-08-23T04:20:26;19.00;94.30
14182;DHT22;7171;50.936;6.764;2022-08-23T04:22:53;19.00;94.60
14182;DHT22;7171;50.936;6.764;2022-08-23T04:25:21;19.10;94.60
14182;DHT22;7171;50.936;6.764;2022-08-23T04:27:49;19.00;94.70
14182;DHT22;7171;50.936;6.764;2022-08-23T04:30:16;19.00;94.70
14182;DHT22;7171;50.936;6.764;2022-08-23T04:32:44;19.00;94.70
14182;DHT22;7171;50.936;6.764;2022-08-23T04:35:13;19.00;94.70
14182;DHT22;7171;50.936;6.764;2022-08-23T04:37:40;19.10;94.70
14182;DHT22;7171;50.936;6.764;2022-08-23T04:40:08;18.90;94.60
14182;DHT22;7171;50.936;6.764;2022-08-23T04:42:52;18.90;94.70
14182;DHT22;7171;50.936;6.764;2022-08-23T04:45:19;18.80;94.70
14182;DHT22;7171;50.936;6.764;2022-08-23T04:50:14;18.60;94.40
14182;DHT22;7171;50.936;6.764;2022-08-23T04:52:41;18.50;94.80
14182;DHT22;7171;50.936;6.764;2022-08-23T04:55:08;18.40;95.00
14182;DHT22;7171;50.936;6.764;2022-08-23T04:57:36;18.40;95.30
14182;DHT22;7171;50.936;6.764;2022-08-23T05:00:05;18.40;98.50
14182;DHT22;7171;50.936;6.764;2022-08-23T05:02:32;18.30;95.60
14182;DHT22;7171;50.936;6.764;2022-08-23T05:07:27;18.20;95.50
14182;DHT22;7171;50.936;6.764;2022-08-23T05:09:55;18.20;95.70
14182;DHT22;7171;50.936;6.764;2022-08-23T05:12:22;18.20;95.80
14182;DHT22;7171;50.936;6.764;2022-08-23T05:14:49;18.20;96.00
14182;DHT22;7171;50.936;6.764;2022-08-23T05:17:16;18.20;96.30
14182;DHT22;7171;50.936;6.764;2022-08-23T05:19:43;18.10;96.50
14182;DHT22;7171;50.936;6.764;2022-08-23T05:22:10;18.20;96.60
14182;DHT22;7171;50.936;6.764;2022-08-23T05:24:38;18.30;96.70
14182;DHT22;7171;50.936;6.764;2022-08-23T05:27:05;18.30;97.10
14182;DHT22;7171;50.936;6.764;2022-08-23T05:29:32;18.40;97.50
14182;DHT22;7171;50.936;6.764;2022-08-23T05:31:59;18.50;97.50
14182;DHT22;7171;50.936;6.764;2022-08-23T05:34:25;18.60;97.50
14182;DHT22;7171;50.936;6.764;2022-08-23T05:36:52;18.60;97.40
14182;DHT22;7171;50.936;6.764;2022-08-23T05:39:19;18.70;97.60
14182;DHT22;7171;50.936;6.764;2022-08-23T05:41:47;18.70;97.70
14182;DHT22;7171;50.936;6.764;2022-08-23T05:44:14;18.80;97.80
14182;DHT22;7171;50.936;6.764;2022-08-23T05:46:41;18.90;97.90
14182;DHT22;7171;50.936;6.764;2022-08-23T05:49:08;19.00;98.10
14182;DHT22;7171;50.936;6.764;2022-08-23T05:51:34;19.10;98.20
14182;DHT22;7171;50.936;6.764;2022-08-23T05:54:04;19.20;98.30
14182;DHT22;7171;50.936;6.764;2022-08-23T05:56:34;19.30;98.40
14182;DHT22;7171;50.936;6.764;2022-08-23T05:59:05;19.30;98.50
14182;DHT22;7171;50.936;6.764;2022-08-23T06:01:33;19.50;98.50
14182;DHT22;7171;50.936;6.764;2022-08-23T06:04:01;19.60;98.70
14182;DHT22;7171;50.936;6.764;2022-08-23T06:06:29;19.80;98.50
14182;DHT22;7171;50.936;6.764;2022-08-23T06:08:55;19.80;98.70
14182;DHT22;7171;50.936;6.764;2022-08-23T06:11:24;19.90;98.60
14182;DHT22;7171;50.936;6.764;2022-08-23T06:13:53;20.10;98.80
14182;DHT22;7171;50.936;6.764;2022-08-23T06:16:24;20.20;98.90
14182;DHT22;7171;50.936;6.764;2022-08-23T06:18:52;20.20;98.70
14182;DHT22;7171;50.936;6.764;2022-08-23T06:21:19;20.60;98.80
14182;DHT22;7171;50.936;6.764;2022-08-23T06:23:46;20.50;98.70
14182;DHT22;7171;50.936;6.764;2022-08-23T06:26:15;20.50;98.50
14182;DHT22;7171;50.936;6.764;2022-08-23T06:28:45;20.60;98.40
14182;DHT22;7171;50.936;6.764;2022-08-23T06:31:12;20.70;98.40
14182;DHT22;7171;50.936;6.764;2022-08-23T06:33:42;20.80;98.60
14182;DHT22;7171;50.936;6.764;2022-08-23T06:36:11;20.80;98.40
14182;DHT22;7171;50.936;6.764;2022-08-23T06:38:39;20.90;98.40
14182;DHT22;7171;50.936;6.764;2022-08-23T06:41:08;20.90;98.40
14182;DHT22;7171;50.936;6.764;2022-08-23T06:43:36;21.00;98.30
14182;DHT22;7171;50.936;6.764;2022-08-23T06:46:09;21.00;98.20
14182;DHT22;7171;50.936;6.764;2022-08-23T06:48:36;21.10;98.20
14182;DHT22;7171;50.936;6.764;2022-08-23T06:51:10;21.10;98.10
14182;DHT22;7171;50.936;6.764;2022-08-23T06:53:37;21.20;98.00
14182;DHT22;7171;50.936;6.764;2022-08-23T06:56:04;21.20;97.90
14182;DHT22;7171;50.936;6.764;2022-08-23T06:58:31;21.30;98.10
14182;DHT22;7171;50.936;6.764;2022-08-23T07:01:08;21.30;97.70
14182;DHT22;7171;50.936;6.764;2022-08-23T07:03:35;21.40;97.80
14182;DHT22;7171;50.936;6.764;2022-08-23T07:06:03;21.40;97.90
14182;DHT22;7171;50.936;6.764;2022-08-23T07:08:31;21.50;97.80
14182;DHT22;7171;50.936;6.764;2022-08-23T07:10:57;21.60;97.90
14182;DHT22;7171;50.936;6.764;2022-08-23T07:13:24;21.70;97.90
14182;DHT22;7171;50.936;6.764;2022-08-23T07:15:56;21.80;97.90
14182;DHT22;7171;50.936;6.764;2022-08-23T07:18:24;21.70;97.80
14182;DHT22;7171;50.936;6.764;2022-08-23T07:20:55;21.90;97.70
14182;DHT22;7171;50.936;6.764;2022-08-23T07:23:23;22.00;97.70
14182;DHT22;7171;50.936;6.764;2022-08-23T07:25:52;22.10;97.80
14182;DHT22;7171;50.936;6.764;2022-08-23T07:28:19;22.10;97.80
14182;DHT22;7171;50.936;6.764;2022-08-23T07:30:45;22.20;97.70
14182;DHT22;7171;50.936;6.764;2022-08-23T07:33:12;22.30;97.60
14182;DHT22;7171;50.936;6.764;2022-08-23T07:35:46;22.40;97.60
14182;DHT22;7171;50.936;6.764;2022-08-23T07:38:13;22.40;97.50
14182;DHT22;7171;50.936;6.764;2022-08-23T07:40:40;22.50;97.40
14182;DHT22;7171;50.936;6.764;2022-08-23T07:43:08;22.60;97.40
14182;DHT22;7171;50.936;6.764;2022-08-23T07:45:36;22.70;97.30
14182;DHT22;7171;50.936;6.764;2022-08-23T07:48:05;22.70;97.20
14182;DHT22;7171;50.936;6.764;2022-08-23T07:50:32;22.80;97.20
14182;DHT22;7171;50.936;6.764;2022-08-23T07:52:58;22.90;97.30
14182;DHT22;7171;50.936;6.764;2022-08-23T07:55:27;23.00;97.20
14182;DHT22;7171;50.936;6.764;2022-08-23T07:57:54;23.10;97.20
14182;DHT22;7171;50.936;6.764;2022-08-23T08:00:22;23.10;97.10
14182;DHT22;7171;50.936;6.764;2022-08-23T08:02:49;23.30;97.10
14182;DHT22;7171;50.936;6.764;2022-08-23T08:05:16;23.30;96.90
14182;DHT22;7171;50.936;6.764;2022-08-23T08:07:42;23.50;96.80
14182;DHT22;7171;50.936;6.764;2022-08-23T08:10:09;23.50;96.90
14182;DHT22;7171;50.936;6.764;2022-08-23T08:12:36;23.60;96.80
14182;DHT22;7171;50.936;6.764;2022-08-23T08:15:04;23.70;96.80
14182;DHT22;7171;50.936;6.764;2022-08-23T08:17:32;23.80;96.80
14182;DHT22;7171;50.936;6.764;2022-08-23T08:19:59;23.90;96.70
14182;DHT22;7171;50.936;6.764;2022-08-23T08:22:26;24.00;96.60
14182;DHT22;7171;50.936;6.764;2022-08-23T08:24:52;24.00;96.40
14182;DHT22;7171;50.936;6.764;2022-08-23T08:27:19;24.10;96.20
14182;DHT22;7171;50.936;6.764;2022-08-23T08:29:46;24.20;96.20
14182;DHT22;7171;50.936;6.764;2022-08-23T08:32:13;24.20;96.20
14182;DHT22;7171;50.936;6.764;2022-08-23T08:34:41;24.40;96.20
14182;DHT22;7171;50.936;6.764;2022-08-23T08:37:07;24.50;96.00
14182;DHT22;7171;50.936;6.764;2022-08-23T08:39:34;24.60;95.90
14182;DHT22;7171;50.936;6.764;2022-08-23T08:42:18;24.60;95.90
14182;DHT22;7171;50.936;6.764;2022-08-23T08:44:50;24.70;95.90
14182;DHT22;7171;50.936;6.764;2022-08-23T08:47:22;24.80;95.80
14182;DHT22;7171;50.936;6.764;2022-08-23T08:50:06;24.90;96.00
14182;DHT22;7171;50.936;6.764;2022-08-23T08:52:37;25.00;95.70
14182;DHT22;7171;50.936;6.764;2022-08-23T08:55:10;25.10;95.60
14182;DHT22;7171;50.936;6.764;2022-08-23T08:57:39;25.20;95.50
14182;DHT22;7171;50.936;6.764;2022-08-23T09:00:10;25.20;95.40
14182;DHT22;7171;50.936;6.764;2022-08-23T09:02:38;25.30;95.40
14182;DHT22;7171;50.936;6.764;2022-08-23T09:05:10;25.40;95.20
14182;DHT22;7171;50.936;6.764;2022-08-23T09:07:43;25.50;95.20
14182;DHT22;7171;50.936;6.764;2022-08-23T09:10:43;25.60;95.20
14182;DHT22;7171;50.936;6.764;2022-08-23T09:13:28;25.70;95.10
14182;DHT22;7171;50.936;6.764;2022-08-23T09:16:01;25.80;95.00
14182;DHT22;7171;50.936;6.764;2022-08-23T09:18:31;25.80;95.20
14182;DHT22;7171;50.936;6.764;2022-08-23T09:21:04;26.00;94.80
14182;DHT22;7171;50.936;6.764;2022-08-23T09:23:35;26.10;95.10
14182;DHT22;7171;50.936;6.764;2022-08-23T09:26:16;26.20;95.00
14182;DHT22;7171;50.936;6.764;2022-08-23T09:28:45;26.20;94.90
14182;DHT22;7171;50.936;6.764;2022-08-23T09:31:36;26.30;94.60
14182;DHT22;7171;50.936;6.764;2022-08-23T09:34:04;26.40;94.60
14182;DHT22;7171;50.936;6.764;2022-08-23T09:36:32;26.50;94.50
14182;DHT22;7171;50.936;6.764;2022-08-23T09:41:32;26.60;93.90
14182;DHT22;7171;50.936;6.764;2022-08-23T09:44:01;26.60;94.00
14182;DHT22;7171;50.936;6.764;2022-08-23T09:46:31;26.70;94.00
14182;DHT22;7171;50.936;6.764;2022-08-23T09:49:21;26.70;93.70
14182;DHT22;7171;50.936;6.764;2022-08-23T09:51:49;26.80;93.50
14182;DHT22;7171;50.936;6.764;2022-08-23T09:54:19;26.80;93.50
14182;DHT22;7171;50.936;6.764;2022-08-23T09:56:51;26.80;93.70
14182;DHT22;7171;50.936;6.764;2022-08-23T09:59:21;26.80;93.30
14182;DHT22;7171;50.936;6.764;2022-08-23T10:01:48;26.90;93.40
14182;DHT22;7171;50.936;6.764;2022-08-23T10:04:22;27.00;93.40
14182;DHT22;7171;50.936;6.764;2022-08-23T10:06:49;27.00;93.40
14182;DHT22;7171;50.936;6.764;2022-08-23T10:09:23;27.10;93.40
14182;DHT22;7171;50.936;6.764;2022-08-23T10:11:51;27.20;93.20
14182;DHT22;7171;50.936;6.764;2022-08-23T10:14:20;27.30;93.20
14182;DHT22;7171;50.936;6.764;2022-08-23T10:16:59;27.40;92.90
14182;DHT22;7171;50.936;6.764;2022-08-23T10:19:36;27.50;92.80
14182;DHT22;7171;50.936;6.764;2022-08-23T10:22:11;27.50;92.90
14182;DHT22;7171;50.936;6.764;2022-08-23T10:24:44;27.60;92.80
14182;DHT22;7171;50.936;6.764;2022-08-23T10:27:30;27.60;92.10
14182;DHT22;7171;50.936;6.764;2022-08-23T10:30:20;27.60;92.50
14182;DHT22;7171;50.936;6.764;2022-08-23T10:32:55;27.70;92.80
14182;DHT22;7171;50.936;6.764;2022-08-23T10:35:31;27.70;92.40
14182;DHT22;7171;50.936;6.764;2022-08-23T10:38:15;27.80;92.20
14182;DHT22;7171;50.936;6.764;2022-08-23T10:40:53;27.80;92.10
14182;DHT22;7171;50.936;6.764;2022-08-23T10:43:27;27.90;92.20
14182;DHT22;7171;50.936;6.764;2022-08-23T10:46:00;28.00;92.00
14182;DHT22;7171;50.936;6.764;2022-08-23T10:48:31;28.10;91.90
14182;DHT22;7171;50.936;6.764;2022-08-23T10:51:03;28.20;91.80
14182;DHT22;7171;50.936;6.764;2022-08-23T10:53:36;28.30;91.80
14182;DHT22;7171;50.936;6.764;2022-08-23T10:56:04;28.30;91.70
14182;DHT22;7171;50.936;6.764;2022-08-23T10:58:38;28.40;91.90
14182;DHT22;7171;50.936;6.764;2022-08-23T11:01:06;28.50;91.50
14182;DHT22;7171;50.936;6.764;2022-08-23T11:03:37;28.50;91.50
14182;DHT22;7171;50.936;6.764;2022-08-23T11:09:45;28.50;91.20
14182;DHT22;7171;50.936;6.764;2022-08-23T11:12:19;28.60;91.30
14182;DHT22;7171;50.936;6.764;2022-08-23T11:14:58;28.60;91.50
14182;DHT22;7171;50.936;6.764;2022-08-23T11:17:30;28.60;91.30
14182;DHT22;7171;50.936;6.764;2022-08-23T11:20:03;28.70;91.30
14182;DHT22;7171;50.936;6.764;2022-08-23T11:22:33;28.80;91.30
14182;DHT22;7171;50.936;6.764;2022-08-23T11:25:03;28.80;91.30
14182;DHT22;7171;50.936;6.764;2022-08-23T11:27:33;29.00;91.20
14182;DHT22;7171;50.936;6.764;2022-08-23T11:33:14;29.10;90.80
14182;DHT22;7171;50.936;6.764;2022-08-23T11:35:44;29.10;89.70
14182;DHT22;7171;50.936;6.764;2022-08-23T11:38:15;29.10;90.40
14182;DHT22;7171;50.936;6.764;2022-08-23T11:41:10;29.20;90.60
14182;DHT22;7171;50.936;6.764;2022-08-23T11:43:38;29.20;90.60
14182;DHT22;7171;50.936;6.764;2022-08-23T11:46:14;29.20;90.60
14182;DHT22;7171;50.936;6.764;2022-08-23T11:48:46;29.30;90.50
14182;DHT22;7171;50.936;6.764;2022-08-23T11:51:25;29.30;90.00
14182;DHT22;7171;50.936;6.764;2022-08-23T11:54:11;29.30;90.30
14182;DHT22;7171;50.936;6.764;2022-08-23T11:56:54;29.40;90.30
14182;DHT22;7171;50.936;6.764;2022-08-23T11:59:38;29.40;90.30
14182;DHT22;7171;50.936;6.764;2022-08-23T12:02:41;29.50;90.30
14182;DHT22;7171;50.936;6.764;2022-08-23T12:05:23;29.60;90.20
14182;DHT22;7171;50.936;6.764;2022-08-23T12:08:29;29.60;90.10
14182;DHT22;7171;50.936;6.764;2022-08-23T12:11:01;29.60;90.10
14182;DHT22;7171;50.936;6.764;2022-08-23T12:13:31;29.70;89.90
14182;DHT22;7171;50.936;6.764;2022-08-23T12:18:38;29.90;89.70
14182;DHT22;7171;50.936;6.764;2022-08-23T12:21:06;30.00;90.00
14182;DHT22;7171;50.936;6.764;2022-08-23T12:23:43;30.10;90.00
14182;DHT22;7171;50.936;6.764;2022-08-23T12:26:28;30.30;90.10
14182;DHT22;7171;50.936;6.764;2022-08-23T12:29:01;30.60;89.50
14182;DHT22;7171;50.936;6.764;2022-08-23T12:31:32;30.60;90.00
14182;DHT22;7171;50.936;6.764;2022-08-23T12:34:11;30.70;89.90
14182;DHT22;7171;50.936;6.764;2022-08-23T12:36:47;30.70;89.10
14182;DHT22;7171;50.936;6.764;2022-08-23T12:39:26;30.70;88.80
14182;DHT22;7171;50.936;6.764;2022-08-23T12:42:05;30.70;88.70
14182;DHT22;7171;50.936;6.764;2022-08-23T12:44:35;30.60;88.50
14182;DHT22;7171;50.936;6.764;2022-08-23T12:47:13;30.60;88.00
14182;DHT22;7171;50.936;6.764;2022-08-23T12:49:41;30.60;89.00
14182;DHT22;7171;50.936;6.764;2022-08-23T12:52:10;30.50;88.40
14182;DHT22;7171;50.936;6.764;2022-08-23T12:54:40;30.50;88.30
14182;DHT22;7171;50.936;6.764;2022-08-23T12:57:13;30.50;88.00
14182;DHT22;7171;50.936;6.764;2022-08-23T12:59:43;30.50;87.70
14182;DHT22;7171;50.936;6.764;2022-08-23T13:02:19;30.40;87.30
14182;DHT22;7171;50.936;6.764;2022-08-23T13:04:48;30.30;86.40
14182;DHT22;7171;50.936;6.764;2022-08-23T13:07:19;30.30;86.90
14182;DHT22;7171;50.936;6.764;2022-08-23T13:09:47;30.20;86.70
14182;DHT22;7171;50.936;6.764;2022-08-23T13:12:16;30.10;86.30
14182;DHT22;7171;50.936;6.764;2022-08-23T13:14:46;30.10;86.20
14182;DHT22;7171;50.936;6.764;2022-08-23T13:17:17;30.00;86.30
14182;DHT22;7171;50.936;6.764;2022-08-23T13:19:45;29.90;86.50
14182;DHT22;7171;50.936;6.764;2022-08-23T13:22:19;29.90;86.20
14182;DHT22;7171;50.936;6.764;2022-08-23T13:24:59;29.80;84.30
14182;DHT22;7171;50.936;6.764;2022-08-23T13:27:30;29.80;85.80
14182;DHT22;7171;50.936;6.764;2022-08-23T13:29:58;29.90;86.20
14182;DHT22;7171;50.936;6.764;2022-08-23T13:32:35;29.90;86.60
14182;DHT22;7171;50.936;6.764;2022-08-23T13:35:33;30.00;86.40
14182;DHT22;7171;50.936;6.764;2022-08-23T13:38:10;30.10;86.20
14182;DHT22;7171;50.936;6.764;2022-08-23T13:40:41;30.30;86.70
14182;DHT22;7171;50.936;6.764;2022-08-23T13:43:13;30.30;86.50
14182;DHT22;7171;50.936;6.764;2022-08-23T13:45:46;30.50;87.30
14182;DHT22;7171;50.936;6.764;2022-08-23T13:48:17;30.50;86.20
14182;DHT22;7171;50.936;6.764;2022-08-23T13:50:45;30.60;86.00
14182;DHT22;7171;50.936;6.764;2022-08-23T13:53:13;30.60;85.80
14182;DHT22;7171;50.936;6.764;2022-08-23T13:55:42;30.60;85.80
14182;DHT22;7171;50.936;6.764;2022-08-23T13:58:13;30.60;85.80
14182;DHT22;7171;50.936;6.764;2022-08-23T14:00:42;30.70;85.70
14182;DHT22;7171;50.936;6.764;2022-08-23T14:03:09;30.60;84.90
14182;DHT22;7171;50.936;6.764;2022-08-23T14:05:36;30.70;85.30
14182;DHT22;7171;50.936;6.764;2022-08-23T14:08:03;30.70;85.30
14182;DHT22;7171;50.936;6.764;2022-08-23T14:10:29;30.60;84.80
14182;DHT22;7171;50.936;6.764;2022-08-23T14:12:56;30.60;84.70
14182;DHT22;7171;50.936;6.764;2022-08-23T14:15:26;30.50;84.60
14182;DHT22;7171;50.936;6.764;2022-08-23T14:17:53;30.50;84.50
14182;DHT22;7171;50.936;6.764;2022-08-23T14:20:21;30.40;84.40
14182;DHT22;7171;50.936;6.764;2022-08-23T14:22:49;30.30;84.10
14182;DHT22;7171;50.936;6.764;2022-08-23T14:25:16;30.20;83.90
14182;DHT22;7171;50.936;6.764;2022-08-23T14:27:45;30.20;84.90
14182;DHT22;7171;50.936;6.764;2022-08-23T14:30:27;30.10;84.60
14182;DHT22;7171;50.936;6.764;2022-08-23T14:32:55;30.20;84.80
14182;DHT22;7171;50.936;6.764;2022-08-23T14:35:22;30.20;84.40
14182;DHT22;7171;50.936;6.764;2022-08-23T14:37:49;30.20;84.10
14182;DHT22;7171;50.936;6.764;2022-08-23T14:40:17;30.30;84.60
14182;DHT22;7171;50.936;6.764;2022-08-23T14:42:44;30.40;84.40
14182;DHT22;7171;50.936;6.764;2022-08-23T14:45:12;30.40;83.50
14182;DHT22;7171;50.936;6.764;2022-08-23T14:47:40;30.50;83.90
14182;DHT22;7171;50.936;6.764;2022-08-23T14:50:11;30.40;84.10
14182;DHT22;7171;50.936;6.764;2022-08-23T14:52:40;30.40;83.60
14182;DHT22;7171;50.936;6.764;2022-08-23T14:55:08;30.30;84.00
14182;DHT22;7171;50.936;6.764;2022-08-23T14:57:35;30.40;84.00
14182;DHT22;7171;50.936;6.764;2022-08-23T15:00:04;30.30;83.90
14182;DHT22;7171;50.936;6.764;2022-08-23T15:02:31;30.30;83.80
14182;DHT22;7171;50.936;6.764;2022-08-23T15:05:00;30.30;83.60
14182;DHT22;7171;50.936;6.764;2022-08-23T15:07:29;30.40;84.30
14182;DHT22;7171;50.936;6.764;2022-08-23T15:09:55;30.40;84.30
14182;DHT22;7171;50.936;6.764;2022-08-23T15:12:22;30.50;84.30
14182;DHT22;7171;50.936;6.764;2022-08-23T15:14:49;30.60;84.30
14182;DHT22;7171;50.936;6.764;2022-08-23T15:17:16;30.70;84.90
14182;DHT22;7171;50.936;6.764;2022-08-23T15:19:43;30.70;84.60
14182;DHT22;7171;50.936;6.764;2022-08-23T15:22:09;30.80;84.80
14182;DHT22;7171;50.936;6.764;2022-08-23T15:24:38;30.90;83.80
14182;DHT22;7171;50.936;6.764;2022-08-23T15:27:05;31.00;83.70
14182;DHT22;7171;50.936;6.764;2022-08-23T15:29:32;31.10;83.90
14182;DHT22;7171;50.936;6.764;2022-08-23T15:31:59;31.20;84.10
14182;DHT22;7171;50.936;6.764;2022-08-23T15:34:26;31.30;84.00
14182;DHT22;7171;50.936;6.764;2022-08-23T15:36:53;31.50;84.40
14182;DHT22;7171;50.936;6.764;2022-08-23T15:39:19;31.50;83.30
14182;DHT22;7171;50.936;6.764;2022-08-23T15:41:47;31.60;83.50
14182;DHT22;7171;50.936;6.764;2022-08-23T15:44:14;31.60;83.10
14182;DHT22;7171;50.936;6.764;2022-08-23T15:46:45;31.60;82.80
14182;DHT22;7171;50.936;6.764;2022-08-23T15:49:14;31.70;82.70
14182;DHT22;7171;50.936;6.764;2022-08-23T15:51:41;31.70;82.40
14182;DHT22;7171;50.936;6.764;2022-08-23T15:54:08;31.70;82.30
14182;DHT22;7171;50.936;6.764;2022-08-23T15:56:40;31.70;81.60
14182;DHT22;7171;50.936;6.764;2022-08-23T15:59:12;31.70;81.90
14182;DHT22;7171;50.936;6.764;2022-08-23T16:01:40;31.70;81.90
14182;DHT22;7171;50.936;6.764;2022-08-23T16:04:07;31.80;82.00
14182;DHT22;7171;50.936;6.764;2022-08-23T16:06:35;31.80;81.80
14182;DHT22;7171;50.936;6.764;2022-08-23T16:09:05;31.90;82.00
14182;DHT22;7171;50.936;6.764;2022-08-23T16:11:33;31.90;81.70
14182;DHT22;7171;50.936;6.764;2022-08-23T16:14:00;31.90;81.50
14182;DHT22;7171;50.936;6.764;2022-08-23T16:16:31;31.90;81.20
14182;DHT22;7171;50.936;6.764;2022-08-23T16:18:59;31.90;81.10
14182;DHT22;7171;50.936;6.764;2022-08-23T16:21:28;31.90;80.50
14182;DHT22;7171;50.936;6.764;2022-08-23T16:23:56;31.80;80.40
14182;DHT22;7171;50.936;6.764;2022-08-23T16:26:26;31.70;80.40
14182;DHT22;7171;50.936;6.764;2022-08-23T16:28:54;31.60;80.10
14182;DHT22;7171;50.936;6.764;2022-08-23T16:31:21;31.50;80.00
14182;DHT22;7171;50.936;6.764;2022-08-23T16:33:55;31.40;80.00
14182;DHT22;7171;50.936;6.764;2022-08-23T16:36:22;31.30;80.00
14182;DHT22;7171;50.936;6.764;2022-08-23T16:38:49;31.10;79.70